createdAt,value
2022-10-05T00:00:05.170Z,6.55
2022-10-05T00:02:05.211Z,6.5
2022-10-05T00:04:05.226Z,6.49
2022-10-05T00:06:05.135Z,6.46
2022-10-05T00:08:05.214Z,6.49
2022-10-05T00:11:21.202Z,6.55
2022-10-05T00:13:21.218Z,6.45
2022-10-05T00:15:21.173Z,6.49
2022-10-05T00:17:21.187Z,6.46
2022-10-05T00:19:21.217Z,6.34
2022-10-05T00:21:21.171Z,6.35
2022-10-05T00:23:21.166Z,6.42
2022-10-05T00:26:55.464Z,6.45
2022-10-05T00:28:51.120Z,6.46
2022-10-05T00:30:51.041Z,6.38
2022-10-05T00:32:53.004Z,6.36
2022-10-05T00:34:51.010Z,6.28
2022-10-05T00:36:51.112Z,6.28
2022-10-05T00:38:51.005Z,6.27
2022-10-05T00:41:27.746Z,6.24
2022-10-05T00:43:27.727Z,6.34
2022-10-05T00:45:27.776Z,6.29
2022-10-05T00:47:27.706Z,6.16
2022-10-05T00:49:27.702Z,6.27
2022-10-05T00:51:27.716Z,6.33
2022-10-05T00:53:27.710Z,6.23
2022-10-05T00:55:27.703Z,6.23
2022-10-05T00:56:57.651Z,6.29
2022-10-05T00:58:57.646Z,6.22
2022-10-05T01:00:57.721Z,6.24
2022-10-05T01:02:57.595Z,6.27
2022-10-05T01:04:57.589Z,6.23
2022-10-05T01:06:57.643Z,6.35
2022-10-05T01:08:57.588Z,6.24
2022-10-05T01:12:16.501Z,6.27
2022-10-05T01:14:16.472Z,6.23
2022-10-05T01:16:16.507Z,5.98
2022-10-05T01:18:16.494Z,5.94
2022-10-05T01:20:16.437Z,5.9
2022-10-05T01:22:16.447Z,5.95
2022-10-05T01:24:16.485Z,5.89
2022-10-05T01:27:42.286Z,5.94
2022-10-05T01:29:42.262Z,5.91
2022-10-05T01:31:42.319Z,5.87
2022-10-05T01:33:42.260Z,5.9
2022-10-05T01:35:42.265Z,5.99
2022-10-05T01:37:42.239Z,5.96
2022-10-05T01:39:42.234Z,5.87
2022-10-05T01:42:44.361Z,5.87
2022-10-05T01:44:44.314Z,5.93
2022-10-05T01:46:44.680Z,5.97
2022-10-05T01:48:44.322Z,5.85
2022-10-05T01:50:44.314Z,5.68
2022-10-05T01:52:44.362Z,5.65
2022-10-05T01:54:44.311Z,5.71
2022-10-05T01:57:21.576Z,5.75
2022-10-05T01:59:21.520Z,5.66
2022-10-05T02:01:21.541Z,5.51
2022-10-05T02:03:21.555Z,5.5
2022-10-05T02:05:21.508Z,5.51
2022-10-05T02:07:21.514Z,5.52
2022-10-05T02:09:21.519Z,5.55
2022-10-05T02:11:21.553Z,5.5
2022-10-05T02:13:24.412Z,5.57
2022-10-05T02:15:24.399Z,5.46
2022-10-05T02:17:24.388Z,5.52
2022-10-05T02:19:24.408Z,5.57
2022-10-05T02:21:24.391Z,5.59
2022-10-05T02:23:24.446Z,5.56
2022-10-05T02:25:24.386Z,5.57
2022-10-05T02:28:06.618Z,5.58
2022-10-05T02:30:06.597Z,5.67
2022-10-05T02:32:06.556Z,5.64
2022-10-05T02:34:06.562Z,5.62
2022-10-05T02:36:06.579Z,5.59
2022-10-05T02:38:06.551Z,5.56
2022-10-05T02:40:06.617Z,5.52
2022-10-05T02:42:46.296Z,5.4
2022-10-05T02:44:46.237Z,5.33
2022-10-05T02:46:46.493Z,5.4
2022-10-05T02:48:46.266Z,5.37
2022-10-05T02:50:46.269Z,5.44
2022-10-05T02:52:46.313Z,5.43
2022-10-05T02:54:46.213Z,5.25
2022-10-05T02:56:46.409Z,5.22
2022-10-05T02:58:21.675Z,5.17
2022-10-05T03:00:21.679Z,5.09
2022-10-05T03:02:21.861Z,5.05
2022-10-05T03:04:21.715Z,5.11
2022-10-05T03:06:21.657Z,5.08
2022-10-05T03:08:21.681Z,5.1
2022-10-05T03:10:21.704Z,5.11
2022-10-05T03:13:38.398Z,5.07
2022-10-05T03:15:38.539Z,5.08
2022-10-05T03:17:38.408Z,5.13
2022-10-05T03:19:38.417Z,5.09
2022-10-05T03:21:38.410Z,4.9
2022-10-05T03:23:38.422Z,4.95
2022-10-05T03:25:38.405Z,5.05
2022-10-05T03:29:10.782Z,4.98
2022-10-05T03:31:10.855Z,4.82
2022-10-05T03:33:10.821Z,4.85
2022-10-05T03:35:10.777Z,4.77
2022-10-05T03:37:10.767Z,4.74
2022-10-05T03:39:10.803Z,4.78
2022-10-05T03:41:10.766Z,4.6
2022-10-05T03:43:51.320Z,4.56
2022-10-05T03:45:51.346Z,4.44
2022-10-05T03:47:51.330Z,4.47
2022-10-05T03:49:51.362Z,4.42
2022-10-05T03:51:51.318Z,4.4
2022-10-05T03:53:51.318Z,4.41
2022-10-05T03:55:51.438Z,4.44
2022-10-05T03:58:54.479Z,4.48
2022-10-05T04:00:54.488Z,4.46
2022-10-05T04:02:54.500Z,4.41
2022-10-05T04:04:54.517Z,4.3
2022-10-05T04:06:54.527Z,4.33
2022-10-05T04:08:54.462Z,4.55
2022-10-05T04:10:54.521Z,4.62
2022-10-05T04:14:34.719Z,4.44
2022-10-05T04:16:34.810Z,4.33
2022-10-05T04:18:34.674Z,4.42
2022-10-05T04:20:34.665Z,4.44
2022-10-05T04:22:34.717Z,4.35
2022-10-05T04:24:34.662Z,4.38
2022-10-05T04:26:34.684Z,4.49
2022-10-05T04:29:05.682Z,4.53
2022-10-05T04:31:05.786Z,4.46
2022-10-05T04:33:05.720Z,4.37
2022-10-05T04:35:06.106Z,4.35
2022-10-05T04:37:05.679Z,4.22
2022-10-05T04:39:05.726Z,4.27
2022-10-05T04:41:05.680Z,4.4
2022-10-05T04:44:12.236Z,4.56
2022-10-05T04:46:12.224Z,4.63
2022-10-05T04:48:12.200Z,4.61
2022-10-05T04:50:12.202Z,4.62
2022-10-05T04:52:12.221Z,4.72
2022-10-05T04:54:12.189Z,4.81
2022-10-05T04:56:12.201Z,4.78
2022-10-05T04:58:12.241Z,4.34
2022-10-05T04:59:27.072Z,4.18
2022-10-05T05:01:27.039Z,4.34
2022-10-05T05:03:27.091Z,4.57
2022-10-05T05:05:27.022Z,4.74
2022-10-05T05:07:27.046Z,4.88
2022-10-05T05:09:27.025Z,4.78
2022-10-05T05:11:27.071Z,4.7
2022-10-05T05:14:52.657Z,4.81
2022-10-05T05:16:52.634Z,4.82
2022-10-05T05:18:52.614Z,4.79
2022-10-05T05:20:52.623Z,5.06
2022-10-05T05:22:52.620Z,5.08
2022-10-05T05:24:52.644Z,5.19
2022-10-05T05:26:52.628Z,5.25
2022-10-05T05:29:52.012Z,5.37
2022-10-05T05:31:51.974Z,5.39
2022-10-05T05:33:51.943Z,5.41
2022-10-05T05:35:51.972Z,5.57
2022-10-05T05:37:51.979Z,5.61
2022-10-05T05:39:52.510Z,5.84
2022-10-05T05:41:51.994Z,6.07
2022-10-05T05:45:11.469Z,6.15
2022-10-05T05:47:12.202Z,5.91
2022-10-05T05:49:11.461Z,5.88
2022-10-05T05:51:11.481Z,6.06
2022-10-05T05:53:11.520Z,6.45
2022-10-05T05:55:11.455Z,6.39
2022-10-05T05:57:11.513Z,6.65
2022-10-05T05:59:57.562Z,6.32
2022-10-05T06:01:57.704Z,6.04
2022-10-05T06:03:57.689Z,6.08
2022-10-05T06:05:57.536Z,6.29
2022-10-05T06:07:57.606Z,6.1
2022-10-05T06:09:57.725Z,6.72
2022-10-05T06:11:57.655Z,6.42
2022-10-05T06:13:57.614Z,6.25
2022-10-05T06:15:47.419Z,6.74
2022-10-05T06:17:47.363Z,6.32
2022-10-05T06:19:47.591Z,6.31
2022-10-05T06:21:47.806Z,7.01
2022-10-05T06:23:47.410Z,7.17
2022-10-05T06:25:47.987Z,7.28
2022-10-05T06:27:47.384Z,7.13
2022-10-05T06:30:49.216Z,7.04
2022-10-05T06:32:49.236Z,6.86
2022-10-05T06:34:49.180Z,6.64
2022-10-05T06:36:49.567Z,6.61
2022-10-05T06:38:49.231Z,7.07
2022-10-05T06:40:49.192Z,7.08
2022-10-05T06:42:49.192Z,7.07
2022-10-05T06:45:26.345Z,7.52
2022-10-05T06:47:26.408Z,7.72
2022-10-05T06:49:26.326Z,7.49
2022-10-05T06:51:26.308Z,7.57
2022-10-05T06:53:26.379Z,7.71
2022-10-05T06:55:26.299Z,7.7
2022-10-05T06:57:26.364Z,8.06
2022-10-05T06:59:26.275Z,8.36
2022-10-05T07:01:13.405Z,8.5
2022-10-05T07:03:13.304Z,8.53
2022-10-05T07:05:13.311Z,8.24
2022-10-05T07:07:13.355Z,8.6
2022-10-05T07:09:13.325Z,8.44
2022-10-05T07:11:13.306Z,8.62
2022-10-05T07:13:13.316Z,8.43
2022-10-05T07:16:13.322Z,8.03
2022-10-05T07:18:13.245Z,8.16
2022-10-05T07:20:13.504Z,7.95
2022-10-05T07:22:13.249Z,8.73
2022-10-05T07:24:13.320Z,8.92
2022-10-05T07:26:13.223Z,9.24
2022-10-05T07:28:13.282Z,9.42
2022-10-05T07:31:14.890Z,9.71
2022-10-05T07:33:14.749Z,9.69
2022-10-05T07:35:14.822Z,9.2
2022-10-05T07:37:14.807Z,9.16
2022-10-05T07:39:14.734Z,9.54
2022-10-05T07:41:14.753Z,9.62
2022-10-05T07:43:14.845Z,10.21
2022-10-05T07:46:40.786Z,9.8
2022-10-05T07:48:40.685Z,9.59
2022-10-05T07:50:40.693Z,9.49
2022-10-05T07:52:40.697Z,9.68
2022-10-05T07:54:40.694Z,10.24
2022-10-05T07:56:40.733Z,10.37
2022-10-05T07:58:40.754Z,10.23
2022-10-05T08:01:38.087Z,10.34
2022-10-05T08:03:37.974Z,10.75
2022-10-05T08:05:37.978Z,11.08
2022-10-05T08:07:37.978Z,11.24
2022-10-05T08:09:38.013Z,11.29
2022-10-05T08:11:38.030Z,11.37
2022-10-05T08:13:38.026Z,12.1
2022-10-05T08:17:24.013Z,12.11
2022-10-05T08:19:21.711Z,12.14
2022-10-05T08:21:20.954Z,12.51
2022-10-05T08:23:20.958Z,12.62
2022-10-05T08:25:20.938Z,12.77
2022-10-05T08:27:20.936Z,12.71
2022-10-05T08:29:20.964Z,13.16
2022-10-05T08:32:24.333Z,13.71
2022-10-05T08:34:24.308Z,13.84
2022-10-05T08:36:24.329Z,13.35
2022-10-05T08:38:24.276Z,13.51
2022-10-05T08:40:24.411Z,13.62
2022-10-05T08:42:24.269Z,13.84
2022-10-05T08:44:24.283Z,14.1
2022-10-05T08:47:30.368Z,14.54
2022-10-05T08:49:34.308Z,14.22
2022-10-05T08:51:30.412Z,14.32
2022-10-05T08:53:30.351Z,14.59
2022-10-05T08:55:30.382Z,14.62
2022-10-05T08:57:30.332Z,14.95
2022-10-05T08:59:30.383Z,14.84
2022-10-05T09:02:11.826Z,14.91
2022-10-05T09:04:11.766Z,14.76
2022-10-05T09:06:11.806Z,14.87
2022-10-05T09:08:11.730Z,15.28
2022-10-05T09:10:11.872Z,15.27
2022-10-05T09:12:11.736Z,15.52
2022-10-05T09:14:11.729Z,14.9
2022-10-05T09:17:39.190Z,15.44
2022-10-05T09:19:35.090Z,15.73
2022-10-05T09:21:35.028Z,15.48
2022-10-05T09:23:35.030Z,15.99
2022-10-05T09:25:35.044Z,16.39
2022-10-05T09:27:35.034Z,16.24
2022-10-05T09:29:35.012Z,16.61
2022-10-05T09:32:45.266Z,15.54
2022-10-05T09:34:45.342Z,16.2
2022-10-05T09:36:45.308Z,16.75
2022-10-05T09:38:45.271Z,16.95
2022-10-05T09:40:45.268Z,17.09
2022-10-05T09:42:45.261Z,17.13
2022-10-05T09:44:45.263Z,17.16
2022-10-05T09:47:44.172Z,17.36
2022-10-05T09:49:44.144Z,17.57
2022-10-05T09:51:44.543Z,17.71
2022-10-05T09:53:44.133Z,17.86
2022-10-05T09:55:44.124Z,17.99
2022-10-05T09:57:44.186Z,18.08
2022-10-05T09:59:44.126Z,17.06
2022-10-05T10:02:48.173Z,16.44
2022-10-05T10:04:48.112Z,17.19
2022-10-05T10:06:48.121Z,17.6
2022-10-05T10:08:48.101Z,17.64
2022-10-05T10:10:48.092Z,17.88
2022-10-05T10:12:48.131Z,18.21
2022-10-05T10:14:48.070Z,17.84
2022-10-05T10:16:48.986Z,17.23
2022-10-05T10:18:33.523Z,17.48
2022-10-05T10:20:33.505Z,17.89
2022-10-05T10:22:33.545Z,18.05
2022-10-05T10:24:33.553Z,18.21
2022-10-05T10:26:33.508Z,17.81
2022-10-05T10:28:33.591Z,17.1
2022-10-05T10:30:35.750Z,17.22
2022-10-05T10:33:22.193Z,17.03
2022-10-05T10:35:22.246Z,17.22
2022-10-05T10:37:22.140Z,17.07
2022-10-05T10:39:22.211Z,17.27
2022-10-05T10:41:22.197Z,17.34
2022-10-05T10:43:22.131Z,17.26
2022-10-05T10:45:22.178Z,17.59
2022-10-05T10:48:58.966Z,17.15
2022-10-05T10:50:59.020Z,17.42
2022-10-05T10:52:58.967Z,17.12
2022-10-05T10:54:59.136Z,17.34
2022-10-05T10:56:58.971Z,17.85
2022-10-05T10:58:58.967Z,17.75
2022-10-05T11:00:58.953Z,18.13
2022-10-05T11:03:59.709Z,17.36
2022-10-05T11:05:59.649Z,17.31
2022-10-05T11:07:59.689Z,17.59
2022-10-05T11:09:59.619Z,17.79
2022-10-05T11:11:59.700Z,17.98
2022-10-05T11:13:59.620Z,18.27
2022-10-05T11:15:59.798Z,17.75
2022-10-05T11:19:30.897Z,17.56
2022-10-05T11:21:27.170Z,17.45
2022-10-05T11:23:27.161Z,17.52
2022-10-05T11:25:27.154Z,17.73
2022-10-05T11:27:27.197Z,18.02
2022-10-05T11:29:27.155Z,17.9
2022-10-05T11:31:27.249Z,18.12
2022-10-05T11:33:49.117Z,17.43
2022-10-05T11:35:49.080Z,17.78
2022-10-05T11:37:49.115Z,17.42
2022-10-05T11:39:49.080Z,17.15
2022-10-05T11:41:49.429Z,17.66
2022-10-05T11:43:49.170Z,17.57
2022-10-05T11:45:49.083Z,17.96
2022-10-05T11:47:49.068Z,18.13
2022-10-05T11:49:06.666Z,18.29
2022-10-05T11:51:06.616Z,18.48
2022-10-05T11:53:06.730Z,18.55
2022-10-05T11:55:10.741Z,18.28
2022-10-05T11:57:06.645Z,18.28
2022-10-05T11:59:06.684Z,18.47
2022-10-05T12:01:06.697Z,18.71
2022-10-05T12:04:13.208Z,18.84
2022-10-05T12:06:13.156Z,18.25
2022-10-05T12:08:13.281Z,18.1
2022-10-05T12:10:13.491Z,18.31
2022-10-05T12:12:13.160Z,17.94
2022-10-05T12:14:13.157Z,17.18
2022-10-05T12:16:13.168Z,16.4
2022-10-05T12:19:36.025Z,16.57
2022-10-05T12:21:36.038Z,16.71
2022-10-05T12:23:36.013Z,16.76
2022-10-05T12:25:36.027Z,17.06
2022-10-05T12:27:36.029Z,17.33
2022-10-05T12:29:36.069Z,17.78
2022-10-05T12:31:36.157Z,18
2022-10-05T12:34:20.212Z,17.98
2022-10-05T12:36:20.224Z,18.25
2022-10-05T12:38:20.162Z,18.2
2022-10-05T12:40:20.170Z,18.19
2022-10-05T12:42:20.206Z,18.13
2022-10-05T12:44:20.165Z,17.79
2022-10-05T12:46:20.172Z,17.41
2022-10-05T12:48:20.169Z,17.58
2022-10-05T12:50:29.791Z,17.94
2022-10-05T12:52:29.658Z,18.11
2022-10-05T12:54:29.615Z,18.21
2022-10-05T12:56:29.601Z,18.07
2022-10-05T12:58:29.674Z,18.01
2022-10-05T13:00:29.657Z,17.72
2022-10-05T13:02:29.682Z,17.62
2022-10-05T13:05:35.047Z,17.5
2022-10-05T13:07:35.101Z,17.24
2022-10-05T13:09:35.047Z,17.15
2022-10-05T13:11:35.069Z,17.54
2022-10-05T13:13:35.127Z,17.73
2022-10-05T13:15:35.048Z,17.97
2022-10-05T13:17:35.112Z,17.77
2022-10-05T13:19:59.154Z,17.84
2022-10-05T13:21:59.110Z,18.02
2022-10-05T13:23:59.182Z,18.01
2022-10-05T13:25:59.112Z,17.81
2022-10-05T13:27:59.166Z,17.44
2022-10-05T13:29:59.167Z,17.29
2022-10-05T13:31:59.133Z,17.47
2022-10-05T13:33:59.176Z,17.63
2022-10-05T13:35:32.250Z,17.68
2022-10-05T13:37:32.245Z,17.47
2022-10-05T13:39:32.271Z,17.62
2022-10-05T13:41:32.299Z,17.6
2022-10-05T13:43:32.362Z,17.78
2022-10-05T13:45:32.323Z,17.57
2022-10-05T13:47:32.233Z,17.48
2022-10-05T13:50:14.668Z,17.75
2022-10-05T13:52:14.528Z,17.79
2022-10-05T13:54:14.669Z,17.48
2022-10-05T13:56:14.530Z,17.38
2022-10-05T13:58:14.507Z,17.43
2022-10-05T14:00:14.520Z,17.39
2022-10-05T14:02:14.539Z,17.24
2022-10-05T14:04:14.556Z,17.31
2022-10-05T14:05:24.353Z,17.31
2022-10-05T14:07:24.428Z,17.44
2022-10-05T14:09:24.321Z,17.22
2022-10-05T14:11:24.311Z,17.27
2022-10-05T14:13:24.366Z,17.18
2022-10-05T14:15:24.339Z,17.1
2022-10-05T14:17:26.894Z,17.11
2022-10-05T14:19:24.322Z,17.12
2022-10-05T14:21:23.804Z,17.14
2022-10-05T14:23:24.175Z,17.18
2022-10-05T14:25:23.792Z,17.2
2022-10-05T14:27:23.772Z,17.02
2022-10-05T14:29:23.775Z,17.09
2022-10-05T14:31:23.842Z,17.11
2022-10-05T14:33:23.774Z,16.92
2022-10-05T14:36:16.350Z,16.95
2022-10-05T14:38:16.390Z,16.95
2022-10-05T14:40:16.323Z,16.82
2022-10-05T14:42:16.375Z,16.9
2022-10-05T14:44:16.325Z,16.81
2022-10-05T14:46:16.740Z,16.74
2022-10-05T14:48:16.320Z,16.91
2022-10-05T14:50:58.589Z,16.93
2022-10-05T14:52:58.634Z,16.84
2022-10-05T14:54:58.599Z,16.51
2022-10-05T14:56:58.567Z,16.38
2022-10-05T14:58:58.620Z,16.17
2022-10-05T15:00:58.635Z,16.32
2022-10-05T15:02:58.621Z,16.37
2022-10-05T15:04:58.564Z,16.15
2022-10-05T15:06:43.235Z,16.09
2022-10-05T15:08:43.192Z,16.02
2022-10-05T15:10:43.220Z,16.08
2022-10-05T15:12:43.246Z,16.05
2022-10-05T15:14:43.194Z,16
2022-10-05T15:16:43.237Z,15.92
2022-10-05T15:18:43.228Z,15.78
2022-10-05T15:22:06.825Z,15.68
2022-10-05T15:24:06.834Z,15.57
2022-10-05T15:26:06.824Z,15.46
2022-10-05T15:28:06.871Z,15.31
2022-10-05T15:30:06.826Z,15.19
2022-10-05T15:32:06.805Z,15.12
2022-10-05T15:34:06.831Z,15
2022-10-05T15:36:27.598Z,14.84
2022-10-05T15:38:27.591Z,14.75
2022-10-05T15:40:27.615Z,14.67
2022-10-05T15:42:27.936Z,14.62
2022-10-05T15:44:27.755Z,14.51
2022-10-05T15:46:27.701Z,14.28
2022-10-05T15:48:27.628Z,14.16
2022-10-05T15:50:27.581Z,14.13
2022-10-05T15:52:02.993Z,14.09
2022-10-05T15:54:06.679Z,14
2022-10-05T15:56:03.064Z,13.9
2022-10-05T15:58:03.067Z,13.75
2022-10-05T16:00:02.990Z,13.81
2022-10-05T16:02:03.085Z,13.6
2022-10-05T16:04:02.978Z,13.52
2022-10-05T16:07:36.532Z,13.43
2022-10-05T16:09:36.502Z,13.35
2022-10-05T16:11:36.525Z,13.25
2022-10-05T16:13:36.507Z,13.13
2022-10-05T16:15:36.497Z,12.96
2022-10-05T16:17:36.497Z,13
2022-10-05T16:19:36.496Z,12.96
2022-10-05T16:22:28.381Z,12.9
2022-10-05T16:24:28.326Z,12.84
2022-10-05T16:26:28.354Z,12.76
2022-10-05T16:28:28.352Z,12.68
2022-10-05T16:30:28.386Z,12.52
2022-10-05T16:32:28.392Z,12.62
2022-10-05T16:34:28.333Z,12.59
2022-10-05T16:37:43.197Z,12.5
2022-10-05T16:39:43.165Z,12.46
2022-10-05T16:41:43.176Z,12.4
2022-10-05T16:43:43.205Z,12.37
2022-10-05T16:45:45.577Z,12.32
2022-10-05T16:47:43.163Z,12.29
2022-10-05T16:49:43.150Z,12.25
2022-10-05T16:52:16.095Z,12.16
2022-10-05T16:54:16.059Z,12.1
2022-10-05T16:56:16.056Z,12.01
2022-10-05T16:58:16.057Z,12.02
2022-10-05T17:00:16.214Z,12
2022-10-05T17:02:16.200Z,11.95
2022-10-05T17:04:16.057Z,11.98
2022-10-05T17:06:16.040Z,11.92
2022-10-05T17:07:45.888Z,11.85
2022-10-05T17:09:45.876Z,11.87
2022-10-05T17:11:45.855Z,11.79
2022-10-05T17:13:45.893Z,11.73
2022-10-05T17:15:45.869Z,11.71
2022-10-05T17:17:45.874Z,11.73
2022-10-05T17:19:45.875Z,11.68
2022-10-05T17:23:32.648Z,11.63
2022-10-05T17:25:32.551Z,11.56
2022-10-05T17:27:32.622Z,11.52
2022-10-05T17:29:32.568Z,11.48
2022-10-05T17:31:32.543Z,11.45
2022-10-05T17:33:32.618Z,11.21
2022-10-05T17:35:32.612Z,11.28
2022-10-05T17:38:20.133Z,11.24
2022-10-05T17:40:20.913Z,11.23
2022-10-05T17:42:20.161Z,11.29
2022-10-05T17:44:20.175Z,11.28
2022-10-05T17:46:20.120Z,11.19
2022-10-05T17:48:20.142Z,11.21
2022-10-05T17:50:20.211Z,11.07
2022-10-05T17:53:03.770Z,10.99
2022-10-05T17:55:03.779Z,11.06
2022-10-05T17:57:03.723Z,11.1
2022-10-05T17:59:03.708Z,11.01
2022-10-05T18:01:03.762Z,10.95
2022-10-05T18:03:03.781Z,11.04
2022-10-05T18:05:03.744Z,10.94
2022-10-05T18:08:14.984Z,10.72
2022-10-05T18:10:14.920Z,10.86
2022-10-05T18:12:14.902Z,10.84
2022-10-05T18:14:14.891Z,10.83
2022-10-05T18:16:14.972Z,10.85
2022-10-05T18:18:14.993Z,10.74
2022-10-05T18:20:14.891Z,10.63
2022-10-05T18:23:28.358Z,10.64
2022-10-05T18:25:28.208Z,10.67
2022-10-05T18:27:30.643Z,10.68
2022-10-05T18:29:28.205Z,10.64
2022-10-05T18:31:28.267Z,10.53
2022-10-05T18:33:28.308Z,10.45
2022-10-05T18:35:28.196Z,10.32
2022-10-05T18:38:28.957Z,10.36
2022-10-05T18:40:28.670Z,10.18
2022-10-05T18:42:28.672Z,9.99
2022-10-05T18:44:28.678Z,10.2
2022-10-05T18:46:28.698Z,10.09
2022-10-05T18:48:29.006Z,10.07
2022-10-05T18:50:28.689Z,10.22
2022-10-05T18:52:28.722Z,10.26
2022-10-05T18:53:31.742Z,10.28
2022-10-05T18:55:31.798Z,10.31
2022-10-05T18:57:31.765Z,10.29
2022-10-05T18:59:31.771Z,10.25
2022-10-05T19:01:31.772Z,10.19
2022-10-05T19:03:31.698Z,10.08
2022-10-05T19:05:48.573Z,10.03
2022-10-05T19:07:31.701Z,10
2022-10-05T19:09:14.578Z,10.12
2022-10-05T19:11:14.591Z,10.08
2022-10-05T19:13:14.564Z,10
2022-10-05T19:15:14.582Z,10.02
2022-10-05T19:17:14.606Z,9.95
2022-10-05T19:19:14.557Z,9.84
2022-10-05T19:21:14.553Z,9.93
2022-10-05T19:23:52.271Z,9.92
2022-10-05T19:25:52.274Z,9.94
2022-10-05T19:27:55.285Z,9.84
2022-10-05T19:29:52.314Z,9.84
2022-10-05T19:31:52.265Z,9.86
2022-10-05T19:33:52.252Z,9.85
2022-10-05T19:35:52.292Z,9.71
2022-10-05T19:37:52.240Z,9.81
2022-10-05T19:39:04.298Z,9.68
2022-10-05T19:41:04.258Z,9.79
2022-10-05T19:43:04.324Z,9.79
2022-10-05T19:45:04.243Z,9.71
2022-10-05T19:47:04.303Z,9.69
2022-10-05T19:49:04.251Z,9.69
2022-10-05T19:51:04.289Z,9.65
2022-10-05T19:53:04.255Z,9.52
2022-10-05T19:54:21.614Z,9.46
2022-10-05T19:56:21.600Z,9.49
2022-10-05T19:58:21.569Z,9.49
2022-10-05T20:00:21.622Z,9.46
2022-10-05T20:02:21.606Z,9.35
2022-10-05T20:04:21.598Z,9.37
2022-10-05T20:06:21.567Z,9.64
2022-10-05T20:09:29.135Z,9.55
2022-10-05T20:11:29.102Z,9.49
2022-10-05T20:13:29.097Z,9.55
2022-10-05T20:15:29.149Z,9.54
2022-10-05T20:17:29.411Z,9.51
2022-10-05T20:19:29.083Z,9.45
2022-10-05T20:21:29.122Z,9.47
2022-10-05T20:23:29.079Z,9.49
2022-10-05T20:24:48.795Z,9.42
2022-10-05T20:26:48.859Z,9.45
2022-10-05T20:28:48.857Z,9.41
2022-10-05T20:30:48.806Z,9.39
2022-10-05T20:32:48.782Z,9.4
2022-10-05T20:34:48.788Z,9.3
2022-10-05T20:36:48.839Z,9.36
2022-10-05T20:39:40.797Z,9.4
2022-10-05T20:41:40.848Z,9.33
2022-10-05T20:43:40.800Z,9.28
2022-10-05T20:45:40.820Z,9.32
2022-10-05T20:47:40.798Z,9.25
2022-10-05T20:49:40.793Z,9.25
2022-10-05T20:51:40.810Z,9.3
2022-10-05T20:53:40.799Z,9.28
2022-10-05T20:54:54.011Z,9.23
2022-10-05T20:56:53.845Z,9.22
2022-10-05T20:58:53.865Z,9.2
2022-10-05T21:00:53.886Z,9.13
2022-10-05T21:02:53.843Z,9.19
2022-10-05T21:04:53.873Z,9.26
2022-10-05T21:06:53.829Z,9.2
2022-10-05T21:08:53.830Z,9.31
2022-10-05T21:10:20.763Z,9.31
2022-10-05T21:12:20.745Z,9.34
2022-10-05T21:14:20.748Z,9.35
2022-10-05T21:16:20.868Z,9.22
2022-10-05T21:18:20.792Z,9.18
2022-10-05T21:20:20.759Z,9.06
2022-10-05T21:22:20.730Z,9.06
2022-10-05T21:25:11.763Z,9.1
2022-10-05T21:27:11.732Z,9.03
2022-10-05T21:29:12.844Z,8.96
2022-10-05T21:31:11.855Z,8.93
2022-10-05T21:33:11.760Z,9.08
2022-10-05T21:35:11.739Z,9.04
2022-10-05T21:37:11.731Z,9.14
2022-10-05T21:39:11.734Z,9.09
2022-10-05T21:40:47.587Z,9.11
2022-10-05T21:42:47.609Z,9.11
2022-10-05T21:44:47.640Z,9.08
2022-10-05T21:46:47.567Z,9.07
2022-10-05T21:48:47.620Z,8.84
2022-10-05T21:50:47.589Z,8.89
2022-10-05T21:52:47.570Z,8.92
2022-10-05T21:55:29.920Z,8.99
2022-10-05T21:57:29.909Z,9.03
2022-10-05T21:59:29.946Z,9.07
2022-10-05T22:01:29.964Z,9.09
2022-10-05T22:03:29.966Z,9.14
2022-10-05T22:05:29.978Z,9.08
2022-10-05T22:07:29.885Z,9.05
2022-10-05T22:09:29.949Z,9.1
2022-10-05T22:11:10.305Z,9.06
2022-10-05T22:13:10.323Z,8.95
2022-10-05T22:15:10.349Z,8.86
2022-10-05T22:17:10.304Z,8.6
2022-10-05T22:19:10.344Z,8.81
2022-10-05T22:21:10.317Z,8.87
2022-10-05T22:23:10.309Z,8.85
2022-10-05T22:26:31.703Z,8.82
2022-10-05T22:28:32.237Z,8.79
2022-10-05T22:30:31.666Z,8.82
2022-10-05T22:32:31.685Z,8.69
2022-10-05T22:34:31.706Z,8.7
2022-10-05T22:36:31.734Z,8.71
2022-10-05T22:38:31.908Z,8.72
2022-10-05T22:41:17.787Z,8.66
2022-10-05T22:43:17.736Z,8.57
2022-10-05T22:45:17.729Z,8.42
2022-10-05T22:47:17.749Z,8.52
2022-10-05T22:49:17.743Z,8.58
2022-10-05T22:51:17.737Z,8.59
2022-10-05T22:53:17.750Z,8.54
2022-10-05T22:56:47.462Z,8.46
2022-10-05T22:58:47.486Z,8.43
2022-10-05T23:00:57.866Z,8.45
2022-10-05T23:02:47.481Z,8.3
2022-10-05T23:04:47.484Z,8.29
2022-10-05T23:06:47.489Z,8.31
2022-10-05T23:08:47.459Z,8.28
2022-10-05T23:11:49.774Z,8.31
2022-10-05T23:13:49.738Z,8.28
2022-10-05T23:15:49.788Z,8.32
2022-10-05T23:17:49.804Z,8.31
2022-10-05T23:19:49.736Z,8.24
2022-10-05T23:21:49.747Z,8.25
2022-10-05T23:23:49.773Z,8.3
2022-10-05T23:27:22.109Z,8.24
2022-10-05T23:29:22.060Z,8.18
2022-10-05T23:31:22.088Z,8.16
2022-10-05T23:33:22.049Z,8.03
2022-10-05T23:35:22.049Z,8.1
2022-10-05T23:37:22.046Z,8.08
2022-10-05T23:39:22.072Z,8.03
2022-10-05T23:42:23.914Z,7.89
2022-10-05T23:44:23.907Z,7.99
2022-10-05T23:46:24.016Z,7.99
2022-10-05T23:48:23.906Z,8.03
2022-10-05T23:50:23.903Z,8.03
2022-10-05T23:52:23.899Z,7.99
2022-10-05T23:54:23.896Z,7.93
2022-10-05T23:57:37.630Z,7.9
2022-10-05T23:59:37.596Z,7.81
